Pagina principale
METAR-TAF:

METAR-TAF

Aeroporti :

Aeroporto di Lecce-Galatina

Lecce, Italia

latitudine: 40-14N, longitudine: 018-09E, altezza: 48 m

Osservazione

Il bollettino è stato emesso 30 minuti fa, alle 06:55 UTC
Vento 16 kt da sud-est con raffiche fino a 26 kt
Temperature 17°C
Umidità 88%
Pressione 1011 hPa
Visibilità: 8000 m
Poco nuvoloso ad un'altezza di 1200 ft
Nuvoloso ad un'altezza di 4500 ft
pioggia debole

METAR: LIBN 270655Z 13016G26KT 8000 -RA FEW012 BKN045 17/15 Q1011 RMK OVC VIS MIN 8000 WIND THR14 13016KT WIND THR32 14017KT BLU

Ora: 09:25 (07:25 UTC)

Previsione

Il bollettino è stato emesso 2 ore e 18 minuti fa, alle 05:07 UTC
Previsione valida dal 27 alle 06 UTC al 27 alle 15 UTC
Vento 17 kt da sud-est
Visibilità 10 km o più
Nubi sparse ad un'altezza di 2500 ft
Temporaneamente
dal 27 alle 06 UTC al 27 alle 08 UTC
Vento 18 kt da sud-est con raffiche fino a 30 kt
pioggia

TAF: LIBN 270507Z 2706/2715 14017KT 9999 SCT025 TEMPO 2706/2708 14018G30KT RA

Osservazioni e previsioni meteorologiche di più di 4000 aeroporti (messaggi METAR e TAF).

Le stazioni disponibili sono rappresentate dai dischi gialli e rossi sulla carta.

Puntare il mouse per vedere il nome della stazione.

Clicca sopra per visualizzare le osservazioni e previsioni meteorologiche.

Per cambiare la mappa : fare clic sui pulsanti verdi con una croce nera per ingrandire, il pulsante verde con un trattino per diminuire, o sulla freccia verde per le mappe adiacenti.


METAR-TAF: